createdAt,value
2023-05-21T00:01:16.457Z,11.40
2023-05-21T00:11:18.894Z,14.40
2023-05-21T00:21:26.502Z,11.82
2023-05-21T00:31:28.951Z,14.83
2023-05-21T00:41:31.521Z,12.40
2023-05-21T00:51:33.868Z,13.00
2023-05-21T01:01:37.356Z,11.65
2023-05-21T01:11:50.776Z,10.77
2023-05-21T01:21:56.952Z,10.70
2023-05-21T01:32:15.409Z,11.65
2023-05-21T06:44:57.799Z,14.18
2023-05-21T06:55:00.159Z,12.98
2023-05-21T07:05:02.992Z,10.98
2023-05-21T07:15:05.859Z,12.25
2023-05-21T07:25:08.704Z,11.82
2023-05-21T07:35:11.116Z,12.45
2023-05-21T07:45:13.528Z,13.20
2023-05-21T07:55:15.995Z,11.95
2023-05-21T08:05:18.475Z,10.15
2023-05-21T08:15:20.939Z,8.32
2023-05-21T08:25:23.365Z,8.85
2023-05-21T08:35:25.748Z,8.50
2023-05-21T08:45:38.418Z,10.00
2023-05-21T08:55:43.038Z,9.48
2023-05-21T09:05:47.519Z,8.63
2023-05-21T09:15:51.716Z,7.63
2023-05-21T09:25:54.083Z,7.28
2023-05-21T09:35:56.750Z,7.40
2023-05-21T09:46:01.964Z,6.88
2023-05-21T09:56:05.594Z,6.35
2023-05-21T10:06:11.887Z,5.75
2023-05-21T10:16:15.975Z,7.10
2023-05-21T10:26:21.807Z,7.13
2023-05-21T10:36:34.125Z,7.57
2023-05-21T10:47:05.017Z,9.73
2023-05-21T10:57:31.724Z,10.73
2023-05-21T11:07:54.160Z,9.73
2023-05-21T11:17:57.434Z,8.75
2023-05-21T11:28:05.962Z,8.43
2023-05-21T11:38:09.429Z,9.85
2023-05-21T11:48:14.231Z,9.60
2023-05-21T11:58:19.549Z,11.30
2023-05-21T12:08:25.697Z,10.43
2023-05-21T12:18:28.257Z,4.70
2023-05-21T12:28:31.019Z,4.40
2023-05-21T12:38:33.389Z,4.03
2023-05-21T12:48:35.716Z,3.55
2023-05-21T12:58:40.742Z,4.10
2023-05-21T13:08:43.068Z,3.60
2023-05-21T13:18:45.456Z,4.45
2023-05-21T13:28:47.805Z,5.50
2023-05-21T13:38:50.118Z,5.70
2023-05-21T13:48:52.494Z,8.07
2023-05-21T13:58:54.986Z,6.95
2023-05-21T14:08:57.413Z,7.55
2023-05-21T14:19:00.323Z,10.52
2023-05-21T14:29:03.024Z,8.57
2023-05-21T14:39:05.389Z,8.40
2023-05-21T14:49:07.728Z,9.90
2023-05-21T14:59:12.994Z,14.02
2023-05-21T15:09:15.442Z,27.55
2023-05-21T15:19:17.830Z,15.75
2023-05-21T15:29:20.217Z,12.15
2023-05-21T15:39:22.521Z,13.52
2023-05-21T15:49:24.903Z,10.40
2023-05-21T15:59:27.793Z,10.13
2023-05-21T16:09:30.120Z,9.20
2023-05-21T16:19:32.825Z,10.15
2023-05-21T16:29:35.291Z,9.43
2023-05-21T16:39:37.806Z,11.32
2023-05-21T16:49:40.154Z,11.90
2023-05-21T16:59:44.030Z,9.65
2023-05-21T17:09:46.352Z,13.43
2023-05-21T17:19:48.741Z,9.88
2023-05-21T17:29:51.159Z,19.52
2023-05-21T17:39:53.531Z,9.13
2023-05-21T17:49:55.991Z,22.55
2023-05-21T17:59:58.413Z,12.05
2023-05-21T18:10:00.860Z,11.52
2023-05-21T18:20:04.632Z,7.38
2023-05-21T18:30:08.433Z,10.20
2023-05-21T18:40:12.219Z,7.25
2023-05-21T18:50:15.557Z,7.32
2023-05-21T19:00:18.316Z,6.55
2023-05-21T19:10:20.755Z,6.38
2023-05-21T19:20:24.448Z,7.95
2023-05-21T19:30:27.145Z,6.35
2023-05-21T19:40:30.292Z,6.95
2023-05-21T19:50:32.714Z,5.70
2023-05-21T20:00:35.034Z,6.38
2023-05-21T20:10:37.706Z,5.43
2023-05-21T20:20:41.508Z,7.05
2023-05-21T20:40:10.526Z,5.28
2023-05-21T20:50:14.021Z,5.97
2023-05-21T21:00:16.691Z,5.85
2023-05-21T21:10:19.301Z,4.43
2023-05-21T21:20:21.673Z,4.90
2023-05-21T21:30:24.006Z,4.55
2023-05-21T21:40:27.593Z,4.68
2023-05-21T21:50:29.908Z,4.45
2023-05-21T22:00:32.241Z,4.93
2023-05-21T22:10:38.371Z,4.95
2023-05-21T22:20:41.560Z,4.80
2023-05-21T22:30:43.941Z,4.50
2023-05-21T22:40:46.413Z,4.32
2023-05-21T22:50:50.476Z,4.88
2023-05-21T23:00:52.822Z,5.63
2023-05-21T23:10:55.190Z,6.53
2023-05-21T23:20:57.624Z,4.95
2023-05-21T23:31:00.079Z,4.28
2023-05-21T23:41:02.471Z,5.43
2023-05-21T23:51:04.856Z,4.40
